Time;durP1;ratioP1;P1;durP2;ratioP2;P2;SDS_P1;SDS_P2;PMS_P1;PMS_P2;Temp;Humidity;BMP_temperature;BMP_pressure;BME280_temperature;BME280_humidity;BME280_pressure;Samples;Min_cycle;Max_cycle;Signal;HPM_P1;HPM_P2
2023/08/01 00:02:11;;;;;;;8.63;2.60;;;;;;;;;;4971822;28;20089;-65
2023/08/01 00:04:37;;;;;;;11.15;2.75;;;;;;;;;;4973587;28;20117;-66
2023/08/01 00:07:03;;;;;;;11.13;2.85;;;;;;;;;;4972295;28;20026;-65
2023/08/01 00:09:29;;;;;;;15.90;2.80;;;;;;;;;;4972300;28;20028;-65
2023/08/01 00:11:55;;;;;;;9.65;2.55;;;;;;;;;;4969824;28;20041;-65
2023/08/01 00:14:24;;;;;;;13.18;3.05;;;;;;;;;;4974772;28;20037;-65
2023/08/01 00:16:50;;;;;;;8.65;2.80;;;;;;;;;;4972013;28;20413;-65
2023/08/01 00:19:16;;;;;;;11.07;3.20;;;;;;;;;;4971358;28;20045;-66
2023/08/01 00:21:42;;;;;;;10.80;2.60;;;;;;;;;;4966333;28;20153;-65
2023/08/01 00:24:09;;;;;;;8.65;2.55;;;;;;;;;;4972845;28;20989;-65
2023/08/01 00:26:35;;;;;;;12.88;2.83;;;;;;;;;;4974711;28;20402;-66
2023/08/01 00:29:01;;;;;;;14.38;2.90;;;;;;;;;;4973093;28;20085;-66
2023/08/01 00:31:27;;;;;;;10.27;2.88;;;;;;;;;;4974604;28;20201;-67
2023/08/01 00:33:54;;;;;;;9.73;2.70;;;;;;;;;;4972633;28;20038;-66
2023/08/01 00:36:20;;;;;;;9.55;2.63;;;;;;;;;;4975088;28;20545;-65
2023/08/01 00:38:46;;;;;;;11.18;2.60;;;;;;;;;;4970698;28;20144;-65
2023/08/01 00:41:13;;;;;;;10.00;3.10;;;;;;;;;;4975936;28;20230;-65
2023/08/01 00:43:39;;;;;;;10.27;3.00;;;;;;;;;;4980460;28;20033;-65
2023/08/01 00:46:06;;;;;;;11.27;2.95;;;;;;;;;;4974097;28;20461;-65
2023/08/01 00:48:32;;;;;;;10.18;2.60;;;;;;;;;;4974173;28;20023;-65
2023/08/01 00:51:00;;;;;;;10.40;2.85;;;;;;;;;;4970223;28;20034;-65
2023/08/01 00:53:26;;;;;;;9.30;2.97;;;;;;;;;;4973292;28;20108;-65
2023/08/01 00:55:53;;;;;;;11.48;2.53;;;;;;;;;;4971481;28;20037;-65
2023/08/01 00:58:19;;;;;;;11.45;3.05;;;;;;;;;;4972153;28;20060;-66
2023/08/01 01:00:46;;;;;;;10.95;3.15;;;;;;;;;;4969834;28;20180;-66
2023/08/01 01:03:13;;;;;;;11.30;2.67;;;;;;;;;;4971912;28;20073;-65
2023/08/01 01:05:41;;;;;;;11.18;2.88;;;;;;;;;;4973020;28;20025;-65
2023/08/01 01:08:08;;;;;;;10.23;2.80;;;;;;;;;;4972733;28;20487;-66
2023/08/01 01:10:34;;;;;;;10.38;3.22;;;;;;;;;;4974393;28;20042;-66
2023/08/01 01:13:00;;;;;;;11.00;2.70;;;;;;;;;;4971147;28;20404;-65
2023/08/01 01:15:26;;;;;;;11.77;3.03;;;;;;;;;;4969524;28;20460;-65
2023/08/01 01:17:52;;;;;;;10.63;3.08;;;;;;;;;;4968752;28;20040;-65
2023/08/01 01:20:24;;;;;;;9.93;2.80;;;;;;;;;;4971258;28;20588;-64
2023/08/01 01:22:51;;;;;;;9.80;2.70;;;;;;;;;;4968240;28;20030;-65
2023/08/01 01:25:19;;;;;;;12.00;2.80;;;;;;;;;;4972162;28;20033;-65
2023/08/01 01:27:45;;;;;;;11.43;2.80;;;;;;;;;;4970330;28;20038;-64
2023/08/01 01:30:12;;;;;;;9.35;2.72;;;;;;;;;;4970513;28;20141;-65
2023/08/01 01:32:38;;;;;;;10.57;2.80;;;;;;;;;;4969056;28;20027;-64
2023/08/01 01:35:05;;;;;;;12.25;2.80;;;;;;;;;;4968128;28;20322;-66
2023/08/01 01:37:31;;;;;;;9.98;3.08;;;;;;;;;;4968982;28;20587;-65
2023/08/01 01:39:57;;;;;;;9.65;2.78;;;;;;;;;;4966238;28;20459;-65
2023/08/01 01:42:23;;;;;;;9.68;2.72;;;;;;;;;;4972194;28;20395;-65
2023/08/01 01:44:50;;;;;;;9.13;2.75;;;;;;;;;;4969813;28;20129;-65
2023/08/01 01:47:16;;;;;;;11.00;2.85;;;;;;;;;;4974063;28;20479;-65
2023/08/01 01:49:42;;;;;;;9.85;2.95;;;;;;;;;;4971183;28;20026;-65
2023/08/01 01:52:08;;;;;;;9.40;2.63;;;;;;;;;;4973986;28;20369;-65
2023/08/01 01:54:34;;;;;;;10.73;3.20;;;;;;;;;;4973127;28;20039;-65
2023/08/01 01:57:00;;;;;;;11.55;2.95;;;;;;;;;;4970318;28;20260;-64
2023/08/01 01:59:26;;;;;;;9.27;2.55;;;;;;;;;;4972576;28;20034;-64
2023/08/01 02:01:53;;;;;;;11.60;2.90;;;;;;;;;;4968269;28;20045;-67
2023/08/01 02:04:19;;;;;;;11.55;2.70;;;;;;;;;;4969469;28;20040;-66
2023/08/01 02:06:45;;;;;;;8.55;2.67;;;;;;;;;;4970084;28;20365;-66
2023/08/01 02:09:11;;;;;;;10.57;2.88;;;;;;;;;;4970799;28;20104;-66
2023/08/01 02:11:37;;;;;;;10.27;2.55;;;;;;;;;;4972018;28;20081;-67
2023/08/01 02:14:03;;;;;;;10.63;2.97;;;;;;;;;;4983424;28;20282;-67
2023/08/01 02:16:29;;;;;;;9.45;2.53;;;;;;;;;;4971938;28;20042;-65
2023/08/01 02:18:55;;;;;;;12.68;3.05;;;;;;;;;;4965894;28;20117;-64
2023/08/01 02:21:22;;;;;;;9.18;2.60;;;;;;;;;;4969622;28;20652;-64
2023/08/01 02:23:48;;;;;;;10.75;3.13;;;;;;;;;;4970864;28;20105;-65
2023/08/01 02:26:14;;;;;;;9.57;2.83;;;;;;;;;;4973853;28;20456;-65
2023/08/01 02:28:40;;;;;;;9.48;2.60;;;;;;;;;;4969832;28;20155;-65
2023/08/01 02:31:06;;;;;;;10.15;3.05;;;;;;;;;;4972504;28;20030;-65
2023/08/01 02:33:32;;;;;;;9.60;2.90;;;;;;;;;;4975598;28;20038;-65
2023/08/01 02:35:59;;;;;;;11.85;3.10;;;;;;;;;;4973203;28;20965;-64
2023/08/01 02:38:25;;;;;;;13.30;3.10;;;;;;;;;;4976658;28;20249;-64
2023/08/01 02:40:51;;;;;;;11.93;3.05;;;;;;;;;;4972523;28;20731;-64
2023/08/01 02:43:17;;;;;;;10.07;2.75;;;;;;;;;;4976808;28;20022;-64
2023/08/01 02:45:43;;;;;;;7.65;2.55;;;;;;;;;;4973182;28;20022;-65
2023/08/01 02:48:09;;;;;;;11.32;3.10;;;;;;;;;;4976119;28;20037;-65
2023/08/01 02:50:36;;;;;;;11.32;3.20;;;;;;;;;;4978712;28;20153;-65
2023/08/01 02:53:02;;;;;;;13.60;2.90;;;;;;;;;;4972249;28;20044;-65
2023/08/01 02:55:28;;;;;;;12.35;3.03;;;;;;;;;;4977845;28;20120;-67
2023/08/01 02:57:54;;;;;;;16.67;3.25;;;;;;;;;;4974258;28;20030;-66
2023/08/01 03:00:20;;;;;;;10.45;3.10;;;;;;;;;;4975840;28;20471;-65
2023/08/01 03:02:46;;;;;;;11.10;2.90;;;;;;;;;;4973677;28;20054;-65
2023/08/01 03:05:13;;;;;;;11.93;3.17;;;;;;;;;;4978502;28;20432;-67
2023/08/01 03:07:39;;;;;;;10.85;2.83;;;;;;;;;;4973117;28;20362;-65
2023/08/01 03:10:06;;;;;;;8.43;2.72;;;;;;;;;;4972480;28;20121;-65
2023/08/01 03:12:32;;;;;;;11.90;3.05;;;;;;;;;;4974643;28;20034;-66
2023/08/01 03:14:59;;;;;;;10.45;2.88;;;;;;;;;;4969693;28;20129;-66
2023/08/01 03:17:25;;;;;;;11.05;2.97;;;;;;;;;;4974289;28;20042;-66
2023/08/01 03:19:51;;;;;;;10.70;3.00;;;;;;;;;;4973494;28;20033;-66
2023/08/01 03:22:17;;;;;;;15.60;3.28;;;;;;;;;;4977776;28;20197;-66
2023/08/01 03:24:43;;;;;;;9.18;3.08;;;;;;;;;;4971913;28;20029;-66
2023/08/01 03:27:10;;;;;;;13.70;3.10;;;;;;;;;;4973618;28;20328;-65
2023/08/01 03:29:36;;;;;;;9.88;2.90;;;;;;;;;;4973725;28;20437;-65
2023/08/01 03:32:02;;;;;;;12.40;3.45;;;;;;;;;;4973877;28;20650;-66
2023/08/01 03:34:28;;;;;;;11.90;3.30;;;;;;;;;;4975006;28;20161;-65
2023/08/01 03:36:54;;;;;;;7.72;2.53;;;;;;;;;;4973456;28;20034;-66
2023/08/01 03:39:20;;;;;;;10.32;2.75;;;;;;;;;;4976269;28;20131;-65
2023/08/01 03:41:46;;;;;;;10.23;2.90;;;;;;;;;;4975231;28;20026;-65
2023/08/01 03:44:13;;;;;;;10.55;2.90;;;;;;;;;;4979049;28;20034;-66
2023/08/01 03:46:40;;;;;;;10.05;3.03;;;;;;;;;;4972370;28;20113;-66
2023/08/01 03:49:06;;;;;;;10.73;2.90;;;;;;;;;;4971399;28;20555;-66
2023/08/01 03:51:32;;;;;;;9.98;3.22;;;;;;;;;;4974629;28;20452;-66
2023/08/01 03:53:58;;;;;;;11.82;3.40;;;;;;;;;;4974655;28;21971;-66
2023/08/01 03:56:24;;;;;;;11.23;3.20;;;;;;;;;;4974294;28;20041;-66
2023/08/01 03:58:50;;;;;;;11.07;3.05;;;;;;;;;;4972059;28;20044;-66
2023/08/01 04:01:16;;;;;;;10.95;3.10;;;;;;;;;;4976452;28;20041;-66
2023/08/01 04:03:43;;;;;;;11.02;3.45;;;;;;;;;;4970049;28;20188;-65
2023/08/01 04:06:10;;;;;;;11.10;3.45;;;;;;;;;;4972739;28;20034;-66
2023/08/01 04:08:36;;;;;;;10.93;3.58;;;;;;;;;;4971466;28;20467;-65
2023/08/01 04:11:03;;;;;;;11.55;3.10;;;;;;;;;;4971742;28;20487;-66
2023/08/01 04:13:29;;;;;;;11.55;3.25;;;;;;;;;;4974118;28;20280;-66
2023/08/01 04:15:55;;;;;;;11.77;3.63;;;;;;;;;;4972114;28;20089;-65
2023/08/01 04:18:21;;;;;;;12.25;3.25;;;;;;;;;;4978544;28;20137;-65
2023/08/01 04:20:47;;;;;;;10.15;3.17;;;;;;;;;;4974391;28;20034;-66
2023/08/01 04:23:14;;;;;;;11.85;3.20;;;;;;;;;;4975541;28;20331;-68
2023/08/01 04:25:41;;;;;;;11.65;3.15;;;;;;;;;;4973594;28;20194;-65
2023/08/01 04:28:07;;;;;;;11.27;3.00;;;;;;;;;;4976068;28;20586;-65
2023/08/01 04:30:33;;;;;;;11.27;3.30;;;;;;;;;;4977245;28;20034;-65
2023/08/01 04:32:59;;;;;;;11.20;3.10;;;;;;;;;;4972566;28;21024;-65
2023/08/01 04:35:25;;;;;;;10.75;3.10;;;;;;;;;;4975923;28;20276;-65
2023/08/01 04:37:51;;;;;;;11.43;3.35;;;;;;;;;;4972960;28;20111;-65
2023/08/01 04:40:18;;;;;;;12.63;3.00;;;;;;;;;;4972997;28;20182;-65
2023/08/01 04:42:44;;;;;;;8.30;3.00;;;;;;;;;;4972732;28;20034;-64
2023/08/01 04:45:10;;;;;;;9.98;2.92;;;;;;;;;;4971766;28;21466;-64
2023/08/01 04:47:36;;;;;;;11.07;3.22;;;;;;;;;;4969427;28;20416;-67
2023/08/01 04:50:02;;;;;;;10.77;2.88;;;;;;;;;;4967638;28;20033;-65
2023/08/01 04:52:28;;;;;;;11.68;3.42;;;;;;;;;;4971212;28;20034;-64
2023/08/01 04:54:55;;;;;;;9.95;2.95;;;;;;;;;;4965165;28;20496;-64
2023/08/01 04:57:21;;;;;;;11.18;3.20;;;;;;;;;;4969204;28;20084;-64
2023/08/01 04:59:47;;;;;;;9.00;3.00;;;;;;;;;;4969256;28;20112;-66
2023/08/01 05:02:13;;;;;;;10.18;3.28;;;;;;;;;;4970242;28;20559;-64
2023/08/01 05:04:39;;;;;;;9.98;3.20;;;;;;;;;;4973929;28;20416;-64
2023/08/01 05:07:06;;;;;;;14.40;3.38;;;;;;;;;;4969376;28;20120;-65
2023/08/01 05:09:33;;;;;;;12.88;3.45;;;;;;;;;;4972756;28;20413;-65
2023/08/01 05:11:59;;;;;;;14.13;3.50;;;;;;;;;;4967059;28;20038;-65
2023/08/01 05:14:25;;;;;;;12.73;3.22;;;;;;;;;;4971314;28;20475;-66
2023/08/01 05:16:51;;;;;;;11.23;3.25;;;;;;;;;;4971674;28;20491;-66
2023/08/01 05:19:17;;;;;;;12.20;3.00;;;;;;;;;;4972813;28;20033;-65
2023/08/01 05:21:43;;;;;;;12.02;3.20;;;;;;;;;;4965706;28;20113;-65
2023/08/01 05:24:10;;;;;;;10.15;3.20;;;;;;;;;;4968553;28;23050;-65
2023/08/01 05:26:37;;;;;;;10.38;3.05;;;;;;;;;;4968870;28;20037;-65
2023/08/01 05:29:03;;;;;;;12.80;3.35;;;;;;;;;;4966254;28;20267;-66
2023/08/01 05:31:29;;;;;;;8.85;3.10;;;;;;;;;;4971281;28;20208;-65
2023/08/01 05:33:56;;;;;;;10.23;3.25;;;;;;;;;;4970636;28;20519;-65
2023/08/01 05:36:22;;;;;;;10.10;3.47;;;;;;;;;;4970223;28;20087;-65
2023/08/01 05:38:48;;;;;;;9.55;3.28;;;;;;;;;;4969236;28;20037;-66
2023/08/01 05:41:14;;;;;;;11.38;3.30;;;;;;;;;;4970618;28;20407;-65
2023/08/01 05:43:40;;;;;;;9.90;3.00;;;;;;;;;;4970460;28;20459;-65
2023/08/01 05:46:06;;;;;;;14.23;3.33;;;;;;;;;;4967724;28;20019;-66
2023/08/01 05:48:32;;;;;;;12.10;3.58;;;;;;;;;;4970751;28;20022;-65
2023/08/01 05:50:59;;;;;;;9.68;3.22;;;;;;;;;;4969331;28;20048;-65
2023/08/01 05:53:25;;;;;;;12.07;3.15;;;;;;;;;;4973380;28;20480;-65
2023/08/01 05:55:51;;;;;;;9.50;2.88;;;;;;;;;;4969414;28;20121;-64
2023/08/01 05:58:17;;;;;;;11.32;3.42;;;;;;;;;;4971604;28;20537;-64
2023/08/01 06:00:43;;;;;;;9.55;3.08;;;;;;;;;;4968857;28;20030;-65
2023/08/01 06:03:09;;;;;;;11.73;3.60;;;;;;;;;;4977971;28;20393;-65
2023/08/01 06:05:37;;;;;;;11.43;3.25;;;;;;;;;;4975051;28;20037;-66
2023/08/01 06:08:03;;;;;;;12.13;3.53;;;;;;;;;;4969782;28;20226;-65
2023/08/01 06:10:30;;;;;;;9.65;2.97;;;;;;;;;;4975380;28;20049;-65
2023/08/01 06:12:56;;;;;;;9.90;3.22;;;;;;;;;;4968285;28;20030;-64
2023/08/01 06:15:22;;;;;;;11.68;2.80;;;;;;;;;;4975507;28;20034;-67
2023/08/01 06:17:48;;;;;;;11.27;3.00;;;;;;;;;;4970927;28;20122;-64
2023/08/01 06:20:14;;;;;;;11.98;3.15;;;;;;;;;;4974500;28;20027;-66
2023/08/01 06:22:41;;;;;;;8.65;2.63;;;;;;;;;;4976898;28;20132;-66
2023/08/01 06:25:07;;;;;;;9.07;2.50;;;;;;;;;;4975328;28;20827;-66
2023/08/01 06:27:33;;;;;;;11.23;2.80;;;;;;;;;;4978551;28;20029;-66
2023/08/01 06:29:59;;;;;;;13.70;3.33;;;;;;;;;;4969473;28;21809;-66
2023/08/01 06:32:26;;;;;;;11.57;3.47;;;;;;;;;;4976080;28;20045;-66
2023/08/01 06:34:52;;;;;;;11.27;3.10;;;;;;;;;;4975520;28;20503;-66
2023/08/01 06:37:18;;;;;;;14.13;2.85;;;;;;;;;;4975839;28;20425;-66
2023/08/01 06:39:44;;;;;;;11.35;3.05;;;;;;;;;;4973190;28;20044;-66
2023/08/01 06:42:10;;;;;;;11.18;3.05;;;;;;;;;;4975499;28;20092;-65
2023/08/01 06:44:37;;;;;;;8.95;2.30;;;;;;;;;;4978246;28;20035;-67
2023/08/01 06:47:03;;;;;;;12.00;3.08;;;;;;;;;;4986063;28;20038;-66
2023/08/01 06:49:29;;;;;;;11.98;3.28;;;;;;;;;;4977592;28;20018;-66
2023/08/01 06:51:55;;;;;;;10.88;3.25;;;;;;;;;;4973987;28;20037;-66
2023/08/01 06:54:21;;;;;;;10.45;2.85;;;;;;;;;;4977523;28;20532;-67
2023/08/01 06:56:47;;;;;;;11.23;2.88;;;;;;;;;;4971141;28;20053;-66
2023/08/01 06:59:14;;;;;;;10.48;3.20;;;;;;;;;;4975701;28;20772;-67
2023/08/01 07:01:43;;;;;;;10.77;2.83;;;;;;;;;;4972466;28;20042;-66
2023/08/01 07:04:09;;;;;;;8.98;2.40;;;;;;;;;;4976019;28;20064;-67
2023/08/01 07:06:35;;;;;;;12.65;3.00;;;;;;;;;;4974765;28;20078;-66
2023/08/01 07:09:02;;;;;;;9.43;2.97;;;;;;;;;;4969140;28;20535;-66
2023/08/01 07:11:28;;;;;;;9.00;2.63;;;;;;;;;;4976627;28;20133;-66
2023/08/01 07:13:54;;;;;;;8.95;2.63;;;;;;;;;;4972568;28;20037;-65
2023/08/01 07:16:20;;;;;;;11.23;2.70;;;;;;;;;;4976508;28;20037;-66
2023/08/01 07:18:48;;;;;;;12.32;3.00;;;;;;;;;;4971331;28;20026;-66
2023/08/01 07:21:14;;;;;;;9.77;3.08;;;;;;;;;;4973972;28;20038;-66
2023/08/01 07:23:40;;;;;;;9.50;2.80;;;;;;;;;;4977241;28;20755;-67
2023/08/01 07:26:07;;;;;;;14.35;3.10;;;;;;;;;;4976587;28;20330;-66
2023/08/01 07:28:33;;;;;;;10.43;2.80;;;;;;;;;;4978865;28;20030;-67
2023/08/01 07:31:00;;;;;;;9.63;2.65;;;;;;;;;;4971539;28;20069;-65
2023/08/01 07:33:26;;;;;;;16.17;3.08;;;;;;;;;;4980517;28;20030;-65
2023/08/01 07:35:52;;;;;;;9.80;2.70;;;;;;;;;;4970801;28;20042;-67
2023/08/01 07:38:18;;;;;;;9.80;3.00;;;;;;;;;;4976468;28;20554;-67
2023/08/01 07:40:44;;;;;;;9.82;2.67;;;;;;;;;;4969526;28;20137;-67
2023/08/01 07:43:10;;;;;;;12.85;2.80;;;;;;;;;;4975012;28;20032;-67
2023/08/01 07:45:37;;;;;;;8.93;3.10;;;;;;;;;;4975480;28;20045;-67
2023/08/01 07:48:04;;;;;;;12.77;3.38;;;;;;;;;;4973468;28;20031;-66
2023/08/01 07:50:30;;;;;;;12.80;2.80;;;;;;;;;;4974880;28;20484;-66
2023/08/01 07:52:57;;;;;;;13.60;3.00;;;;;;;;;;4972788;28;20242;-67
2023/08/01 07:55:23;;;;;;;11.48;3.08;;;;;;;;;;4976119;28;20226;-66
2023/08/01 07:57:49;;;;;;;10.20;2.60;;;;;;;;;;4971804;28;20499;-67
2023/08/01 08:00:16;;;;;;;10.55;2.63;;;;;;;;;;4976226;28;20115;-66
2023/08/01 08:02:42;;;;;;;13.00;3.20;;;;;;;;;;4972054;28;20050;-66
2023/08/01 08:05:09;;;;;;;10.45;3.13;;;;;;;;;;4977466;28;20137;-68
2023/08/01 08:07:35;;;;;;;11.35;3.05;;;;;;;;;;4973431;28;20034;-67
2023/08/01 08:10:01;;;;;;;10.00;2.90;;;;;;;;;;4971830;28;20168;-67
2023/08/01 08:12:27;;;;;;;11.68;2.97;;;;;;;;;;4973666;28;20185;-68
2023/08/01 08:14:53;;;;;;;9.52;2.70;;;;;;;;;;4973380;28;20495;-65
2023/08/01 08:17:20;;;;;;;9.82;2.95;;;;;;;;;;4975715;28;20108;-68
2023/08/01 08:19:46;;;;;;;10.10;3.30;;;;;;;;;;4971532;28;20403;-66
2023/08/01 08:22:12;;;;;;;13.38;2.80;;;;;;;;;;4972689;28;20325;-65
2023/08/01 08:24:38;;;;;;;13.65;2.90;;;;;;;;;;4975030;28;20323;-66
2023/08/01 08:27:04;;;;;;;11.60;3.40;;;;;;;;;;4974714;28;20117;-66
2023/08/01 08:29:32;;;;;;;10.48;3.08;;;;;;;;;;4975652;28;20038;-66
2023/08/01 08:31:58;;;;;;;15.40;3.15;;;;;;;;;;4968368;28;20526;-65
2023/08/01 08:34:24;;;;;;;11.45;3.10;;;;;;;;;;4975423;28;20278;-66
2023/08/01 08:36:50;;;;;;;9.35;2.85;;;;;;;;;;4968674;28;20507;-66
2023/08/01 08:39:18;;;;;;;10.35;3.15;;;;;;;;;;4971983;28;20140;-66
2023/08/01 08:41:48;;;;;;;12.40;3.13;;;;;;;;;;4967777;28;20041;-68
2023/08/01 08:44:19;;;;;;;11.07;3.22;;;;;;;;;;4977169;28;20488;-68
2023/08/01 08:46:46;;;;;;;11.85;3.45;;;;;;;;;;4967068;28;20542;-66
2023/08/01 08:49:15;;;;;;;12.35;3.05;;;;;;;;;;4971077;28;20483;-66
2023/08/01 08:51:43;;;;;;;11.15;2.80;;;;;;;;;;4965745;28;20476;-66
2023/08/01 08:54:09;;;;;;;12.95;2.97;;;;;;;;;;4972960;28;20021;-68
2023/08/01 08:56:36;;;;;;;11.40;2.88;;;;;;;;;;4971673;28;20041;-68
2023/08/01 08:59:02;;;;;;;12.25;3.35;;;;;;;;;;4968180;28;20151;-68
2023/08/01 09:01:28;;;;;;;10.50;3.10;;;;;;;;;;4969934;28;20348;-68
2023/08/01 09:03:56;;;;;;;12.23;3.15;;;;;;;;;;4968551;28;20050;-66
2023/08/01 09:06:25;;;;;;;10.77;2.70;;;;;;;;;;4973341;28;20049;-67
2023/08/01 09:08:56;;;;;;;13.05;3.10;;;;;;;;;;4968343;28;20526;-65
2023/08/01 09:11:22;;;;;;;10.25;2.75;;;;;;;;;;4967308;28;20049;-65
2023/08/01 09:13:48;;;;;;;11.95;2.75;;;;;;;;;;4966468;28;20374;-67
2023/08/01 09:16:15;;;;;;;11.57;2.90;;;;;;;;;;4971936;28;20032;-67
2023/08/01 09:18:51;;;;;;;12.30;3.22;;;;;;;;;;4968150;28;20571;-65
2023/08/01 09:21:21;;;;;;;12.60;3.30;;;;;;;;;;4972444;28;20030;-70
2023/08/01 09:23:47;;;;;;;9.23;3.00;;;;;;;;;;4969663;28;20581;-67
2023/08/01 09:26:17;;;;;;;10.57;3.35;;;;;;;;;;4969368;28;20026;-67
2023/08/01 09:28:43;;;;;;;10.20;2.92;;;;;;;;;;4971887;28;20342;-67
2023/08/01 09:31:11;;;;;;;9.77;2.80;;;;;;;;;;4975175;28;20041;-67
2023/08/01 09:33:41;;;;;;;11.35;2.92;;;;;;;;;;4975205;28;20333;-66
2023/08/01 09:36:08;;;;;;;8.90;2.70;;;;;;;;;;4974827;28;20120;-68
2023/08/01 09:38:35;;;;;;;11.45;3.13;;;;;;;;;;4976200;28;20048;-66
2023/08/01 09:41:01;;;;;;;11.73;3.08;;;;;;;;;;4970676;28;20295;-66
2023/08/01 09:43:36;;;;;;;9.50;2.85;;;;;;;;;;4979154;28;20286;-65
2023/08/01 09:46:02;;;;;;;10.93;2.78;;;;;;;;;;4969911;28;20781;-65
2023/08/01 09:48:29;;;;;;;14.98;3.08;;;;;;;;;;4974257;28;20038;-66
2023/08/01 09:51:08;;;;;;;11.18;2.67;;;;;;;;;;4969718;28;20022;-66
2023/08/01 09:53:35;;;;;;;10.07;2.80;;;;;;;;;;4972848;28;20065;-65
2023/08/01 09:56:04;;;;;;;9.95;2.58;;;;;;;;;;4965383;28;20747;-65
2023/08/01 09:58:33;;;;;;;10.60;3.03;;;;;;;;;;4969139;28;20368;-66
2023/08/01 10:01:01;;;;;;;9.77;2.85;;;;;;;;;;4968664;28;20739;-66
2023/08/01 10:03:30;;;;;;;13.82;2.50;;;;;;;;;;4972248;28;20050;-65
2023/08/01 10:05:57;;;;;;;10.48;2.88;;;;;;;;;;4968742;28;20026;-65
2023/08/01 10:08:23;;;;;;;9.10;2.53;;;;;;;;;;4974562;28;20038;-65
2023/08/01 10:10:49;;;;;;;13.45;3.05;;;;;;;;;;4970990;28;20459;-67
2023/08/01 10:13:16;;;;;;;9.40;2.55;;;;;;;;;;4973382;28;20366;-67
2023/08/01 10:15:43;;;;;;;9.80;2.83;;;;;;;;;;4966607;28;20057;-67
2023/08/01 10:18:10;;;;;;;9.25;2.75;;;;;;;;;;4969774;28;20634;-68
2023/08/01 10:20:37;;;;;;;9.68;2.83;;;;;;;;;;4970276;28;20042;-67
2023/08/01 10:23:03;;;;;;;8.48;2.42;;;;;;;;;;4970644;28;20034;-67
2023/08/01 10:25:31;;;;;;;9.10;2.63;;;;;;;;;;4970051;28;20038;-66
2023/08/01 10:28:00;;;;;;;9.80;2.72;;;;;;;;;;4970162;28;20389;-67
2023/08/01 10:30:27;;;;;;;10.68;2.83;;;;;;;;;;4969667;28;20145;-66
2023/08/01 10:32:56;;;;;;;11.23;2.67;;;;;;;;;;4966521;28;20030;-66
2023/08/01 10:35:32;;;;;;;11.82;2.80;;;;;;;;;;4972682;28;20030;-66
2023/08/01 10:38:04;;;;;;;11.18;2.90;;;;;;;;;;4966479;28;20368;-67
2023/08/01 10:40:33;;;;;;;8.70;2.80;;;;;;;;;;4971031;28;20124;-67
2023/08/01 10:43:00;;;;;;;9.98;2.95;;;;;;;;;;4970339;28;21475;-66
2023/08/01 10:45:28;;;;;;;10.93;3.00;;;;;;;;;;4974589;28;20361;-66
2023/08/01 10:47:54;;;;;;;9.27;2.83;;;;;;;;;;4970012;28;20030;-68
2023/08/01 10:50:21;;;;;;;8.93;2.40;;;;;;;;;;4982151;28;20093;-66
2023/08/01 10:52:47;;;;;;;9.30;2.83;;;;;;;;;;4975144;28;20581;-68
2023/08/01 10:55:13;;;;;;;9.25;2.55;;;;;;;;;;4970720;28;20242;-69
2023/08/01 10:57:40;;;;;;;9.93;2.97;;;;;;;;;;4972332;28;20049;-68
2023/08/01 11:00:09;;;;;;;9.88;2.60;;;;;;;;;;4976041;28;20040;-69
2023/08/01 11:02:35;;;;;;;10.98;3.13;;;;;;;;;;4973463;28;20121;-66
2023/08/01 11:05:03;;;;;;;10.70;2.72;;;;;;;;;;4970617;28;20107;-65
2023/08/01 11:07:30;;;;;;;6.93;2.50;;;;;;;;;;4972977;28;20531;-65
2023/08/01 11:10:13;;;;;;;8.85;2.78;;;;;;;;;;4972030;28;20570;-65
2023/08/01 11:12:42;;;;;;;12.30;2.72;;;;;;;;;;4976446;28;20587;-66
2023/08/01 11:15:10;;;;;;;9.85;2.95;;;;;;;;;;4974028;28;20151;-66
2023/08/01 11:17:37;;;;;;;8.98;2.63;;;;;;;;;;4972313;28;20042;-67
2023/08/01 11:20:04;;;;;;;11.05;2.60;;;;;;;;;;4973092;28;20037;-67
2023/08/01 11:22:31;;;;;;;10.65;3.08;;;;;;;;;;4975490;28;20089;-65
2023/08/01 11:24:57;;;;;;;11.35;3.15;;;;;;;;;;4969389;28;20041;-67
2023/08/01 11:27:23;;;;;;;9.25;2.95;;;;;;;;;;4977163;28;20101;-67
2023/08/01 11:29:49;;;;;;;12.02;3.15;;;;;;;;;;4969665;28;20105;-67
2023/08/01 11:32:15;;;;;;;10.30;2.80;;;;;;;;;;4971502;28;20030;-66
2023/08/01 11:34:46;;;;;;;10.13;2.53;;;;;;;;;;4971025;28;20049;-66
2023/08/01 11:37:12;;;;;;;10.05;3.17;;;;;;;;;;4972656;28;20268;-66
2023/08/01 11:39:39;;;;;;;10.40;2.72;;;;;;;;;;4971371;28;20037;-66
2023/08/01 11:42:06;;;;;;;12.00;2.85;;;;;;;;;;4970531;28;20073;-67
2023/08/01 11:44:32;;;;;;;11.23;2.75;;;;;;;;;;4969855;28;20037;-67
2023/08/01 11:46:58;;;;;;;11.05;2.90;;;;;;;;;;4969607;28;20320;-67
2023/08/01 11:49:26;;;;;;;9.63;2.80;;;;;;;;;;4966690;28;20033;-67
2023/08/01 11:51:52;;;;;;;9.30;2.70;;;;;;;;;;4970874;28;20548;-67
2023/08/01 11:54:18;;;;;;;13.40;3.10;;;;;;;;;;4972887;28;20037;-67
2023/08/01 11:56:44;;;;;;;8.82;2.92;;;;;;;;;;4968999;28;20405;-66
2023/08/01 11:59:14;;;;;;;8.48;2.45;;;;;;;;;;4971134;28;20260;-66
2023/08/01 12:01:41;;;;;;;10.93;2.67;;;;;;;;;;4966747;28;20562;-64
2023/08/01 12:04:07;;;;;;;10.38;2.90;;;;;;;;;;4968993;28;20057;-68
2023/08/01 12:06:33;;;;;;;8.13;2.65;;;;;;;;;;4969693;28;20139;-68
2023/08/01 12:09:26;;;;;;;9.10;2.28;;;;;;;;;;4966885;28;22289;-67
2023/08/01 12:12:00;;;;;;;9.18;2.80;;;;;;;;;;4965356;28;20042;-67
2023/08/01 12:14:27;;;;;;;14.02;3.08;;;;;;;;;;4968725;28;20030;-67
2023/08/01 12:16:54;;;;;;;11.43;2.85;;;;;;;;;;4980619;28;20313;-68
2023/08/01 12:19:20;;;;;;;10.38;2.83;;;;;;;;;;4971209;28;20381;-67
2023/08/01 12:21:47;;;;;;;9.20;2.63;;;;;;;;;;4964687;28;20082;-67
2023/08/01 12:24:13;;;;;;;10.57;2.53;;;;;;;;;;4970049;28;20113;-67
2023/08/01 12:26:40;;;;;;;10.82;2.90;;;;;;;;;;4971330;28;20354;-65
2023/08/01 12:29:07;;;;;;;13.65;3.00;;;;;;;;;;4969960;28;20031;-66
2023/08/01 12:31:33;;;;;;;10.98;2.85;;;;;;;;;;4970795;28;20391;-66
2023/08/01 12:34:00;;;;;;;9.35;2.58;;;;;;;;;;4967830;28;20644;-66
2023/08/01 12:36:26;;;;;;;10.40;2.60;;;;;;;;;;4966572;28;20491;-66
2023/08/01 12:38:52;;;;;;;10.15;2.63;;;;;;;;;;4965208;28;20026;-65
2023/08/01 12:41:18;;;;;;;12.52;3.00;;;;;;;;;;4970705;28;20444;-67
2023/08/01 12:43:44;;;;;;;11.60;2.55;;;;;;;;;;4967714;28;20033;-66
2023/08/01 12:46:11;;;;;;;9.68;2.72;;;;;;;;;;4969873;28;20037;-66
2023/08/01 12:48:37;;;;;;;11.50;2.80;;;;;;;;;;4968892;28;20035;-66
2023/08/01 12:51:03;;;;;;;11.85;3.05;;;;;;;;;;4964455;28;20418;-66
2023/08/01 12:53:29;;;;;;;7.88;2.50;;;;;;;;;;4972312;28;20026;-66
2023/08/01 12:55:56;;;;;;;8.85;2.63;;;;;;;;;;4966588;28;20863;-66
2023/08/01 12:58:22;;;;;;;14.07;3.08;;;;;;;;;;4970944;28;20116;-67
2023/08/01 13:00:51;;;;;;;8.68;2.60;;;;;;;;;;4969419;28;20034;-67
2023/08/01 13:03:17;;;;;;;9.05;2.60;;;;;;;;;;4967761;28;20040;-67
2023/08/01 13:05:43;;;;;;;9.38;2.15;;;;;;;;;;4965338;28;20030;-67
2023/08/01 13:08:10;;;;;;;8.88;2.40;;;;;;;;;;4966918;28;20507;-66
2023/08/01 13:10:38;;;;;;;10.27;2.85;;;;;;;;;;4968507;28;20580;-66
2023/08/01 13:13:05;;;;;;;10.95;2.50;;;;;;;;;;4963760;28;20475;-66
2023/08/01 13:15:31;;;;;;;9.05;2.70;;;;;;;;;;4971307;28;20531;-66
2023/08/01 13:17:57;;;;;;;10.13;2.22;;;;;;;;;;4967333;28;20046;-67
2023/08/01 13:20:24;;;;;;;9.55;2.70;;;;;;;;;;4971421;28;20061;-67
2023/08/01 13:25:55;;;;;;;9.60;2.67;;;;;;;;;;5515307;22;20083;-72
2023/08/01 13:33:32;;;;;;;8.82;2.63;;;;;;;;;;5343822;22;20210;-73
2023/08/01 13:35:59;;;;;;;11.00;2.97;;;;;;;;;;5024432;28;20044;-73
2023/08/01 13:38:25;;;;;;;10.23;2.55;;;;;;;;;;5033576;28;20036;-73
2023/08/01 13:40:51;;;;;;;9.20;2.70;;;;;;;;;;5029053;28;20129;-72
2023/08/01 13:43:17;;;;;;;7.88;2.78;;;;;;;;;;5029148;28;20171;-73
2023/08/01 13:45:43;;;;;;;11.60;2.83;;;;;;;;;;5034637;28;20040;-73
2023/08/01 13:48:10;;;;;;;11.05;3.30;;;;;;;;;;5030886;28;20029;-73
2023/08/01 13:50:36;;;;;;;9.50;2.90;;;;;;;;;;5036689;28;20119;-72
2023/08/01 13:53:02;;;;;;;11.13;2.80;;;;;;;;;;5029976;28;20025;-72
2023/08/01 13:55:28;;;;;;;10.07;2.92;;;;;;;;;;5035634;28;20020;-73
2023/08/01 13:57:54;;;;;;;10.60;3.17;;;;;;;;;;5011580;28;20521;-72
2023/08/01 14:00:21;;;;;;;8.52;2.60;;;;;;;;;;5012612;28;20780;-73
2023/08/01 14:02:49;;;;;;;11.65;2.72;;;;;;;;;;5010435;28;20107;-72
2023/08/01 14:05:15;;;;;;;9.60;2.65;;;;;;;;;;5014923;28;20619;-72
2023/08/01 14:07:41;;;;;;;7.80;2.42;;;;;;;;;;5009631;28;20044;-73
2023/08/01 14:10:09;;;;;;;9.82;2.60;;;;;;;;;;5013946;28;20394;-73
2023/08/01 14:12:35;;;;;;;8.75;2.53;;;;;;;;;;5009436;28;20025;-74
2023/08/01 14:15:01;;;;;;;9.20;2.58;;;;;;;;;;4995257;28;20036;-72
2023/08/01 14:17:27;;;;;;;10.30;2.80;;;;;;;;;;5014522;28;20351;-70
2023/08/01 14:19:53;;;;;;;10.05;2.90;;;;;;;;;;5008600;28;20635;-72
2023/08/01 14:22:19;;;;;;;10.88;2.67;;;;;;;;;;5017874;28;20030;-72
2023/08/01 14:24:46;;;;;;;13.85;3.00;;;;;;;;;;5012499;28;20357;-72
2023/08/01 14:27:12;;;;;;;13.80;2.78;;;;;;;;;;5020802;28;20449;-72
2023/08/01 14:29:38;;;;;;;10.20;2.85;;;;;;;;;;5021597;28;20029;-72
2023/08/01 14:32:04;;;;;;;8.25;2.55;;;;;;;;;;5012946;28;20037;-73
2023/08/01 14:34:30;;;;;;;12.15;2.72;;;;;;;;;;5019056;28;20036;-72
2023/08/01 14:36:56;;;;;;;11.02;2.92;;;;;;;;;;5010471;28;20233;-73
2023/08/01 14:39:23;;;;;;;9.93;2.70;;;;;;;;;;5021391;28;20044;-72